sensor_id;sensor_type;location;lat;lon;timestamp;temperature;humidity
68924;DHT22;55961;52.156;20.942;2023-05-10T00:00:35;9.00;50.80
68924;DHT22;55961;52.156;20.942;2023-05-10T00:03:09;8.90;50.80
68924;DHT22;55961;52.156;20.942;2023-05-10T00:05:35;8.90;50.90
68924;DHT22;55961;52.156;20.942;2023-05-10T00:08:01;8.90;50.90
68924;DHT22;55961;52.156;20.942;2023-05-10T00:10:27;8.90;50.90
68924;DHT22;55961;52.156;20.942;2023-05-10T00:12:53;8.80;51.00
68924;DHT22;55961;52.156;20.942;2023-05-10T00:15:19;8.80;51.10
68924;DHT22;55961;52.156;20.942;2023-05-10T00:17:45;8.80;51.10
68924;DHT22;55961;52.156;20.942;2023-05-10T00:20:11;8.80;51.10
68924;DHT22;55961;52.156;20.942;2023-05-10T00:22:37;8.70;51.10
68924;DHT22;55961;52.156;20.942;2023-05-10T00:25:03;8.70;51.10
68924;DHT22;55961;52.156;20.942;2023-05-10T00:27:29;8.70;51.10
68924;DHT22;55961;52.156;20.942;2023-05-10T00:29:55;8.60;51.20
68924;DHT22;55961;52.156;20.942;2023-05-10T00:32:21;8.60;51.20
68924;DHT22;55961;52.156;20.942;2023-05-10T00:34:47;8.60;51.20
68924;DHT22;55961;52.156;20.942;2023-05-10T00:37:13;8.50;51.20
68924;DHT22;55961;52.156;20.942;2023-05-10T00:39:38;8.50;51.30
68924;DHT22;55961;52.156;20.942;2023-05-10T00:42:05;8.50;51.40
68924;DHT22;55961;52.156;20.942;2023-05-10T00:44:30;8.50;51.40
68924;DHT22;55961;52.156;20.942;2023-05-10T00:46:57;8.40;51.50
68924;DHT22;55961;52.156;20.942;2023-05-10T00:49:24;8.40;51.50
68924;DHT22;55961;52.156;20.942;2023-05-10T00:51:50;8.40;51.50
68924;DHT22;55961;52.156;20.942;2023-05-10T00:54:16;8.40;51.50
68924;DHT22;55961;52.156;20.942;2023-05-10T00:56:42;8.30;51.50
68924;DHT22;55961;52.156;20.942;2023-05-10T00:59:17;8.30;51.60
68924;DHT22;55961;52.156;20.942;2023-05-10T01:01:46;8.30;51.60
68924;DHT22;55961;52.156;20.942;2023-05-10T01:04:13;8.30;51.70
68924;DHT22;55961;52.156;20.942;2023-05-10T01:06:41;8.30;51.80
68924;DHT22;55961;52.156;20.942;2023-05-10T01:09:07;8.20;51.80
68924;DHT22;55961;52.156;20.942;2023-05-10T01:11:35;8.20;51.90
68924;DHT22;55961;52.156;20.942;2023-05-10T01:14:01;8.20;51.80
68924;DHT22;55961;52.156;20.942;2023-05-10T01:16:31;8.20;51.90
68924;DHT22;55961;52.156;20.942;2023-05-10T01:18:58;8.20;51.80
68924;DHT22;55961;52.156;20.942;2023-05-10T01:21:43;8.10;51.80
68924;DHT22;55961;52.156;20.942;2023-05-10T01:32:51;8.10;52.00
68924;DHT22;55961;52.156;20.942;2023-05-10T01:35:42;8.00;52.10
68924;DHT22;55961;52.156;20.942;2023-05-10T01:38:29;8.00;52.10
68924;DHT22;55961;52.156;20.942;2023-05-10T01:43:51;7.90;52.20
68924;DHT22;55961;52.156;20.942;2023-05-10T01:46:27;7.90;52.20
68924;DHT22;55961;52.156;20.942;2023-05-10T01:48:57;7.90;52.30
68924;DHT22;55961;52.156;20.942;2023-05-10T01:51:25;7.90;52.40
68924;DHT22;55961;52.156;20.942;2023-05-10T01:53:59;7.80;52.40
68924;DHT22;55961;52.156;20.942;2023-05-10T01:56:26;7.80;52.50
68924;DHT22;55961;52.156;20.942;2023-05-10T01:58:55;7.80;52.70
68924;DHT22;55961;52.156;20.942;2023-05-10T02:01:22;7.70;52.80
68924;DHT22;55961;52.156;20.942;2023-05-10T02:03:50;7.70;52.70
68924;DHT22;55961;52.156;20.942;2023-05-10T02:06:18;7.70;52.70
68924;DHT22;55961;52.156;20.942;2023-05-10T02:08:49;7.60;52.80
68924;DHT22;55961;52.156;20.942;2023-05-10T02:11:17;7.60;52.80
68924;DHT22;55961;52.156;20.942;2023-05-10T02:13:44;7.60;52.90
68924;DHT22;55961;52.156;20.942;2023-05-10T02:16:13;7.60;53.20
68924;DHT22;55961;52.156;20.942;2023-05-10T02:18:40;7.50;53.30
68924;DHT22;55961;52.156;20.942;2023-05-10T02:21:08;7.50;53.50
68924;DHT22;55961;52.156;20.942;2023-05-10T02:23:35;7.50;53.30
68924;DHT22;55961;52.156;20.942;2023-05-10T02:26:02;7.50;53.50
68924;DHT22;55961;52.156;20.942;2023-05-10T02:28:29;7.40;53.70
68924;DHT22;55961;52.156;20.942;2023-05-10T02:30:56;7.40;53.60
68924;DHT22;55961;52.156;20.942;2023-05-10T02:33:22;7.40;53.80
68924;DHT22;55961;52.156;20.942;2023-05-10T02:35:50;7.30;53.80
68924;DHT22;55961;52.156;20.942;2023-05-10T02:38:19;7.30;53.80
68924;DHT22;55961;52.156;20.942;2023-05-10T02:40:46;7.30;54.00
68924;DHT22;55961;52.156;20.942;2023-05-10T02:43:15;7.20;54.00
68924;DHT22;55961;52.156;20.942;2023-05-10T02:45:42;7.20;54.20
68924;DHT22;55961;52.156;20.942;2023-05-10T02:48:09;7.20;54.40
68924;DHT22;55961;52.156;20.942;2023-05-10T02:50:35;7.20;54.50
68924;DHT22;55961;52.156;20.942;2023-05-10T02:53:15;7.20;54.60
68924;DHT22;55961;52.156;20.942;2023-05-10T02:55:41;7.10;54.70
68924;DHT22;55961;52.156;20.942;2023-05-10T02:58:09;7.10;54.80
68924;DHT22;55961;52.156;20.942;2023-05-10T03:00:35;7.10;54.90
68924;DHT22;55961;52.156;20.942;2023-05-10T03:03:02;7.00;55.00
68924;DHT22;55961;52.156;20.942;2023-05-10T03:05:27;7.00;55.20
68924;DHT22;55961;52.156;20.942;2023-05-10T03:07:54;7.00;55.00
68924;DHT22;55961;52.156;20.942;2023-05-10T03:10:27;6.90;55.10
68924;DHT22;55961;52.156;20.942;2023-05-10T03:15:40;6.90;55.20
68924;DHT22;55961;52.156;20.942;2023-05-10T03:18:21;6.90;55.20
68924;DHT22;55961;52.156;20.942;2023-05-10T03:20:49;6.90;55.20
68924;DHT22;55961;52.156;20.942;2023-05-10T03:26:07;6.80;55.70
68924;DHT22;55961;52.156;20.942;2023-05-10T03:28:34;6.80;55.80
68924;DHT22;55961;52.156;20.942;2023-05-10T03:31:02;6.70;55.90
68924;DHT22;55961;52.156;20.942;2023-05-10T03:33:29;6.80;55.90
68924;DHT22;55961;52.156;20.942;2023-05-10T03:35:54;6.70;55.90
68924;DHT22;55961;52.156;20.942;2023-05-10T03:38:20;6.70;56.00
68924;DHT22;55961;52.156;20.942;2023-05-10T03:40:46;6.70;56.40
68924;DHT22;55961;52.156;20.942;2023-05-10T03:43:12;6.70;56.30
68924;DHT22;55961;52.156;20.942;2023-05-10T03:45:38;6.70;56.10
68924;DHT22;55961;52.156;20.942;2023-05-10T03:48:05;6.70;56.60
68924;DHT22;55961;52.156;20.942;2023-05-10T03:50:31;6.70;56.20
68924;DHT22;55961;52.156;20.942;2023-05-10T03:52:57;6.70;56.10
68924;DHT22;55961;52.156;20.942;2023-05-10T03:55:23;6.70;56.20
68924;DHT22;55961;52.156;20.942;2023-05-10T03:57:49;6.70;56.10
68924;DHT22;55961;52.156;20.942;2023-05-10T04:00:15;6.80;56.10
68924;DHT22;55961;52.156;20.942;2023-05-10T04:02:42;6.80;56.10
68924;DHT22;55961;52.156;20.942;2023-05-10T04:05:08;6.80;56.00
68924;DHT22;55961;52.156;20.942;2023-05-10T04:07:34;6.90;56.20
68924;DHT22;55961;52.156;20.942;2023-05-10T04:10:00;6.90;56.00
68924;DHT22;55961;52.156;20.942;2023-05-10T04:12:26;6.90;56.10
68924;DHT22;55961;52.156;20.942;2023-05-10T04:14:51;7.00;56.10
68924;DHT22;55961;52.156;20.942;2023-05-10T04:17:17;7.00;56.10
68924;DHT22;55961;52.156;20.942;2023-05-10T04:19:43;7.00;55.90
68924;DHT22;55961;52.156;20.942;2023-05-10T04:22:09;7.10;56.00
68924;DHT22;55961;52.156;20.942;2023-05-10T04:24:35;7.10;55.90
68924;DHT22;55961;52.156;20.942;2023-05-10T04:27:01;7.10;55.80
68924;DHT22;55961;52.156;20.942;2023-05-10T04:29:27;7.20;55.50
68924;DHT22;55961;52.156;20.942;2023-05-10T04:31:53;7.30;55.50
68924;DHT22;55961;52.156;20.942;2023-05-10T04:34:21;7.30;55.60
68924;DHT22;55961;52.156;20.942;2023-05-10T04:36:47;7.40;55.40
68924;DHT22;55961;52.156;20.942;2023-05-10T04:39:12;7.40;55.30
68924;DHT22;55961;52.156;20.942;2023-05-10T04:41:39;7.50;55.30
68924;DHT22;55961;52.156;20.942;2023-05-10T04:44:05;7.60;55.00
68924;DHT22;55961;52.156;20.942;2023-05-10T04:46:32;7.70;54.90
68924;DHT22;55961;52.156;20.942;2023-05-10T04:48:57;7.70;54.70
68924;DHT22;55961;52.156;20.942;2023-05-10T04:51:23;7.80;54.80
68924;DHT22;55961;52.156;20.942;2023-05-10T04:53:49;7.90;54.60
68924;DHT22;55961;52.156;20.942;2023-05-10T04:56:15;8.00;54.40
68924;DHT22;55961;52.156;20.942;2023-05-10T04:58:42;8.10;54.00
68924;DHT22;55961;52.156;20.942;2023-05-10T05:01:09;8.10;53.90
68924;DHT22;55961;52.156;20.942;2023-05-10T05:03:36;8.20;53.70
68924;DHT22;55961;52.156;20.942;2023-05-10T05:06:02;8.30;53.70
68924;DHT22;55961;52.156;20.942;2023-05-10T05:08:28;8.40;53.50
68924;DHT22;55961;52.156;20.942;2023-05-10T05:10:55;8.50;53.30
68924;DHT22;55961;52.156;20.942;2023-05-10T05:13:21;8.70;53.30
68924;DHT22;55961;52.156;20.942;2023-05-10T05:15:47;8.80;53.50
68924;DHT22;55961;52.156;20.942;2023-05-10T05:18:12;8.90;52.70
68924;DHT22;55961;52.156;20.942;2023-05-10T05:20:39;9.00;52.30
68924;DHT22;55961;52.156;20.942;2023-05-10T05:23:04;9.20;52.20
68924;DHT22;55961;52.156;20.942;2023-05-10T05:25:30;9.30;52.40
68924;DHT22;55961;52.156;20.942;2023-05-10T05:27:56;9.40;52.00
68924;DHT22;55961;52.156;20.942;2023-05-10T05:30:22;9.50;51.40
68924;DHT22;55961;52.156;20.942;2023-05-10T05:32:48;9.70;51.30
68924;DHT22;55961;52.156;20.942;2023-05-10T05:35:14;9.80;51.50
68924;DHT22;55961;52.156;20.942;2023-05-10T05:37:40;9.90;51.60
68924;DHT22;55961;52.156;20.942;2023-05-10T05:40:06;10.10;51.20
68924;DHT22;55961;52.156;20.942;2023-05-10T05:42:32;10.20;50.80
68924;DHT22;55961;52.156;20.942;2023-05-10T05:44:59;10.40;50.50
68924;DHT22;55961;52.156;20.942;2023-05-10T05:47:24;10.60;50.20
68924;DHT22;55961;52.156;20.942;2023-05-10T05:49:51;10.80;50.10
68924;DHT22;55961;52.156;20.942;2023-05-10T05:52:17;10.90;49.60
68924;DHT22;55961;52.156;20.942;2023-05-10T05:54:43;11.10;49.00
68924;DHT22;55961;52.156;20.942;2023-05-10T05:57:09;11.20;48.50
68924;DHT22;55961;52.156;20.942;2023-05-10T05:59:35;11.40;48.10
68924;DHT22;55961;52.156;20.942;2023-05-10T06:02:01;11.50;48.50
68924;DHT22;55961;52.156;20.942;2023-05-10T06:04:27;11.70;47.90
68924;DHT22;55961;52.156;20.942;2023-05-10T06:06:53;11.80;47.50
68924;DHT22;55961;52.156;20.942;2023-05-10T06:09:19;12.00;47.20
68924;DHT22;55961;52.156;20.942;2023-05-10T06:11:45;12.10;46.90
68924;DHT22;55961;52.156;20.942;2023-05-10T06:14:11;12.20;46.90
68924;DHT22;55961;52.156;20.942;2023-05-10T06:16:37;12.40;47.00
68924;DHT22;55961;52.156;20.942;2023-05-10T06:19:03;12.50;46.50
68924;DHT22;55961;52.156;20.942;2023-05-10T06:21:29;12.60;46.20
68924;DHT22;55961;52.156;20.942;2023-05-10T06:23:55;12.70;46.00
68924;DHT22;55961;52.156;20.942;2023-05-10T06:26:21;12.90;45.60
68924;DHT22;55961;52.156;20.942;2023-05-10T06:28:47;13.00;45.70
68924;DHT22;55961;52.156;20.942;2023-05-10T06:31:13;13.20;45.10
68924;DHT22;55961;52.156;20.942;2023-05-10T06:33:39;13.30;45.10
68924;DHT22;55961;52.156;20.942;2023-05-10T06:36:06;13.40;44.80
68924;DHT22;55961;52.156;20.942;2023-05-10T06:38:31;13.60;44.80
68924;DHT22;55961;52.156;20.942;2023-05-10T06:40:57;13.70;45.10
68924;DHT22;55961;52.156;20.942;2023-05-10T06:43:23;13.90;44.30
68924;DHT22;55961;52.156;20.942;2023-05-10T06:45:50;14.00;43.70
68924;DHT22;55961;52.156;20.942;2023-05-10T06:48:16;14.10;43.60
68924;DHT22;55961;52.156;20.942;2023-05-10T06:50:42;14.30;42.90
68924;DHT22;55961;52.156;20.942;2023-05-10T06:53:09;14.40;43.20
68924;DHT22;55961;52.156;20.942;2023-05-10T06:55:35;14.50;43.40
68924;DHT22;55961;52.156;20.942;2023-05-10T06:58:01;14.60;43.10
68924;DHT22;55961;52.156;20.942;2023-05-10T07:00:27;14.80;42.20
68924;DHT22;55961;52.156;20.942;2023-05-10T07:02:53;15.00;41.20
68924;DHT22;55961;52.156;20.942;2023-05-10T07:05:19;15.10;41.80
68924;DHT22;55961;52.156;20.942;2023-05-10T07:07:45;15.20;40.70
68924;DHT22;55961;52.156;20.942;2023-05-10T07:10:11;15.40;40.20
68924;DHT22;55961;52.156;20.942;2023-05-10T07:12:37;15.50;39.90
68924;DHT22;55961;52.156;20.942;2023-05-10T07:15:04;15.60;39.30
68924;DHT22;55961;52.156;20.942;2023-05-10T07:17:30;15.70;38.30
68924;DHT22;55961;52.156;20.942;2023-05-10T07:19:56;15.80;38.70
68924;DHT22;55961;52.156;20.942;2023-05-10T07:22:22;16.00;38.40
68924;DHT22;55961;52.156;20.942;2023-05-10T07:24:48;16.10;36.90
68924;DHT22;55961;52.156;20.942;2023-05-10T07:27:14;16.20;37.30
68924;DHT22;55961;52.156;20.942;2023-05-10T07:29:40;16.30;37.50
68924;DHT22;55961;52.156;20.942;2023-05-10T07:32:06;16.40;36.20
68924;DHT22;55961;52.156;20.942;2023-05-10T07:34:32;16.50;35.80
68924;DHT22;55961;52.156;20.942;2023-05-10T07:36:58;16.60;35.20
68924;DHT22;55961;52.156;20.942;2023-05-10T07:39:25;16.70;35.10
68924;DHT22;55961;52.156;20.942;2023-05-10T07:41:51;16.70;34.00
68924;DHT22;55961;52.156;20.942;2023-05-10T07:44:17;16.80;33.40
68924;DHT22;55961;52.156;20.942;2023-05-10T07:46:46;16.80;33.30
68924;DHT22;55961;52.156;20.942;2023-05-10T07:49:13;16.80;32.80
68924;DHT22;55961;52.156;20.942;2023-05-10T07:51:39;16.90;33.80
68924;DHT22;55961;52.156;20.942;2023-05-10T07:54:05;17.00;33.80
68924;DHT22;55961;52.156;20.942;2023-05-10T07:56:32;17.10;33.80
68924;DHT22;55961;52.156;20.942;2023-05-10T07:58:59;17.20;33.00
68924;DHT22;55961;52.156;20.942;2023-05-10T08:01:26;17.20;33.50
68924;DHT22;55961;52.156;20.942;2023-05-10T08:03:52;17.30;33.80
68924;DHT22;55961;52.156;20.942;2023-05-10T08:06:19;17.40;34.30
68924;DHT22;55961;52.156;20.942;2023-05-10T08:08:47;17.50;31.60
68924;DHT22;55961;52.156;20.942;2023-05-10T08:11:19;17.50;31.20
68924;DHT22;55961;52.156;20.942;2023-05-10T08:13:47;17.50;31.60
68924;DHT22;55961;52.156;20.942;2023-05-10T08:16:13;17.60;32.90
68924;DHT22;55961;52.156;20.942;2023-05-10T08:18:39;17.70;32.30
68924;DHT22;55961;52.156;20.942;2023-05-10T08:21:05;17.80;32.10
68924;DHT22;55961;52.156;20.942;2023-05-10T08:23:31;17.90;31.40
68924;DHT22;55961;52.156;20.942;2023-05-10T08:25:57;18.00;31.40
68924;DHT22;55961;52.156;20.942;2023-05-10T08:28:23;18.10;31.40
68924;DHT22;55961;52.156;20.942;2023-05-10T08:30:50;18.20;31.60
68924;DHT22;55961;52.156;20.942;2023-05-10T08:33:18;18.30;31.10
68924;DHT22;55961;52.156;20.942;2023-05-10T08:35:44;18.30;31.50
68924;DHT22;55961;52.156;20.942;2023-05-10T08:38:10;18.30;32.70
68924;DHT22;55961;52.156;20.942;2023-05-10T08:40:37;18.40;31.80
68924;DHT22;55961;52.156;20.942;2023-05-10T08:43:08;18.30;31.10
68924;DHT22;55961;52.156;20.942;2023-05-10T08:45:38;18.30;31.00
68924;DHT22;55961;52.156;20.942;2023-05-10T08:48:09;18.30;31.20
68924;DHT22;55961;52.156;20.942;2023-05-10T08:50:36;18.40;31.90
68924;DHT22;55961;52.156;20.942;2023-05-10T08:53:05;18.50;31.70
68924;DHT22;55961;52.156;20.942;2023-05-10T08:55:35;18.70;31.30
68924;DHT22;55961;52.156;20.942;2023-05-10T08:58:05;18.80;30.50
68924;DHT22;55961;52.156;20.942;2023-05-10T09:00:32;18.80;30.40
68924;DHT22;55961;52.156;20.942;2023-05-10T09:02:59;18.90;30.20
68924;DHT22;55961;52.156;20.942;2023-05-10T09:05:25;19.00;30.20
68924;DHT22;55961;52.156;20.942;2023-05-10T09:07:51;19.10;30.00
68924;DHT22;55961;52.156;20.942;2023-05-10T09:10:17;19.20;30.10
68924;DHT22;55961;52.156;20.942;2023-05-10T09:12:44;19.30;30.20
68924;DHT22;55961;52.156;20.942;2023-05-10T09:15:11;19.40;30.10
68924;DHT22;55961;52.156;20.942;2023-05-10T09:17:38;19.50;29.20
68924;DHT22;55961;52.156;20.942;2023-05-10T09:20:05;19.50;29.70
68924;DHT22;55961;52.156;20.942;2023-05-10T09:22:32;19.60;29.80
68924;DHT22;55961;52.156;20.942;2023-05-10T09:27:33;19.60;29.00
68924;DHT22;55961;52.156;20.942;2023-05-10T09:29:59;19.50;29.80
68924;DHT22;55961;52.156;20.942;2023-05-10T09:32:45;19.60;30.20
68924;DHT22;55961;52.156;20.942;2023-05-10T09:35:12;19.70;31.30
68924;DHT22;55961;52.156;20.942;2023-05-10T09:37:40;19.80;30.30
68924;DHT22;55961;52.156;20.942;2023-05-10T09:40:20;19.90;30.50
68924;DHT22;55961;52.156;20.942;2023-05-10T09:45:18;20.20;30.40
68924;DHT22;55961;52.156;20.942;2023-05-10T09:47:45;20.30;30.00
68924;DHT22;55961;52.156;20.942;2023-05-10T09:50:11;20.40;29.50
68924;DHT22;55961;52.156;20.942;2023-05-10T09:55:13;20.70;29.50
68924;DHT22;55961;52.156;20.942;2023-05-10T09:57:39;20.70;28.20
68924;DHT22;55961;52.156;20.942;2023-05-10T10:00:06;20.50;29.90
68924;DHT22;55961;52.156;20.942;2023-05-10T10:02:33;20.60;30.20
68924;DHT22;55961;52.156;20.942;2023-05-10T10:05:02;20.70;29.70
68924;DHT22;55961;52.156;20.942;2023-05-10T10:07:29;20.80;29.80
68924;DHT22;55961;52.156;20.942;2023-05-10T10:09:55;21.00;29.60
68924;DHT22;55961;52.156;20.942;2023-05-10T10:12:21;21.10;29.00
68924;DHT22;55961;52.156;20.942;2023-05-10T10:14:47;21.20;28.60
68924;DHT22;55961;52.156;20.942;2023-05-10T10:17:15;21.30;27.80
68924;DHT22;55961;52.156;20.942;2023-05-10T10:19:41;21.30;28.30
68924;DHT22;55961;52.156;20.942;2023-05-10T10:22:07;21.30;27.80
68924;DHT22;55961;52.156;20.942;2023-05-10T10:24:33;21.30;27.90
68924;DHT22;55961;52.156;20.942;2023-05-10T10:27:09;21.30;27.50
68924;DHT22;55961;52.156;20.942;2023-05-10T10:32:27;21.20;28.40
68924;DHT22;55961;52.156;20.942;2023-05-10T10:34:55;21.30;27.50
68924;DHT22;55961;52.156;20.942;2023-05-10T10:37:22;21.30;28.30
68924;DHT22;55961;52.156;20.942;2023-05-10T10:39:50;21.30;28.00
68924;DHT22;55961;52.156;20.942;2023-05-10T10:42:46;21.40;28.80
68924;DHT22;55961;52.156;20.942;2023-05-10T10:45:13;21.50;29.00
68924;DHT22;55961;52.156;20.942;2023-05-10T10:47:39;21.60;27.60
68924;DHT22;55961;52.156;20.942;2023-05-10T10:50:06;21.60;27.70
68924;DHT22;55961;52.156;20.942;2023-05-10T10:52:38;21.60;27.50
68924;DHT22;55961;52.156;20.942;2023-05-10T10:55:14;21.70;28.00
68924;DHT22;55961;52.156;20.942;2023-05-10T11:00:19;21.70;28.10
68924;DHT22;55961;52.156;20.942;2023-05-10T11:02:50;21.80;27.50
68924;DHT22;55961;52.156;20.942;2023-05-10T11:07:57;21.90;27.50
68924;DHT22;55961;52.156;20.942;2023-05-10T11:10:24;21.90;27.90
68924;DHT22;55961;52.156;20.942;2023-05-10T11:13:00;21.90;27.70
68924;DHT22;55961;52.156;20.942;2023-05-10T11:15:32;21.90;27.80
68924;DHT22;55961;52.156;20.942;2023-05-10T11:17:59;22.00;27.50
68924;DHT22;55961;52.156;20.942;2023-05-10T11:20:28;22.00;27.70
68924;DHT22;55961;52.156;20.942;2023-05-10T11:23:13;22.10;27.70
68924;DHT22;55961;52.156;20.942;2023-05-10T11:25:45;22.10;27.90
68924;DHT22;55961;52.156;20.942;2023-05-10T11:28:12;22.10;27.90
68924;DHT22;55961;52.156;20.942;2023-05-10T11:30:39;22.10;28.00
68924;DHT22;55961;52.156;20.942;2023-05-10T11:33:06;22.10;28.10
68924;DHT22;55961;52.156;20.942;2023-05-10T11:35:39;22.20;27.90
68924;DHT22;55961;52.156;20.942;2023-05-10T11:38:10;22.20;27.80
68924;DHT22;55961;52.156;20.942;2023-05-10T11:40:37;22.20;27.80
68924;DHT22;55961;52.156;20.942;2023-05-10T11:43:03;22.30;28.40
68924;DHT22;55961;52.156;20.942;2023-05-10T11:45:33;22.40;28.40
68924;DHT22;55961;52.156;20.942;2023-05-10T11:47:59;22.40;28.30
68924;DHT22;55961;52.156;20.942;2023-05-10T11:50:25;22.40;28.60
68924;DHT22;55961;52.156;20.942;2023-05-10T11:52:52;22.40;28.60
68924;DHT22;55961;52.156;20.942;2023-05-10T11:55:19;22.40;28.40
68924;DHT22;55961;52.156;20.942;2023-05-10T11:57:45;22.40;27.50
68924;DHT22;55961;52.156;20.942;2023-05-10T12:00:13;22.20;27.80
68924;DHT22;55961;52.156;20.942;2023-05-10T12:02:39;22.20;28.60
68924;DHT22;55961;52.156;20.942;2023-05-10T12:05:06;22.30;28.40
68924;DHT22;55961;52.156;20.942;2023-05-10T12:07:33;22.30;28.50
68924;DHT22;55961;52.156;20.942;2023-05-10T12:10:06;22.40;28.70
68924;DHT22;55961;52.156;20.942;2023-05-10T12:15:11;22.40;28.20
68924;DHT22;55961;52.156;20.942;2023-05-10T12:17:39;22.40;27.70
68924;DHT22;55961;52.156;20.942;2023-05-10T12:20:18;22.40;27.70
68924;DHT22;55961;52.156;20.942;2023-05-10T12:22:53;22.40;28.10
68924;DHT22;55961;52.156;20.942;2023-05-10T12:25:21;22.40;28.30
68924;DHT22;55961;52.156;20.942;2023-05-10T12:27:58;22.50;28.70
68924;DHT22;55961;52.156;20.942;2023-05-10T12:30:27;22.70;28.40
68924;DHT22;55961;52.156;20.942;2023-05-10T12:32:59;22.80;28.20
68924;DHT22;55961;52.156;20.942;2023-05-10T12:35:25;22.80;28.10
68924;DHT22;55961;52.156;20.942;2023-05-10T12:37:51;22.80;27.90
68924;DHT22;55961;52.156;20.942;2023-05-10T12:40:17;22.80;28.30
68924;DHT22;55961;52.156;20.942;2023-05-10T12:42:43;22.80;28.00
68924;DHT22;55961;52.156;20.942;2023-05-10T12:45:12;22.90;27.50
68924;DHT22;55961;52.156;20.942;2023-05-10T12:47:38;22.90;28.10
68924;DHT22;55961;52.156;20.942;2023-05-10T12:50:04;23.00;27.80
68924;DHT22;55961;52.156;20.942;2023-05-10T12:52:32;23.10;27.80
68924;DHT22;55961;52.156;20.942;2023-05-10T12:54:59;23.10;27.70
68924;DHT22;55961;52.156;20.942;2023-05-10T12:57:25;23.20;27.90
68924;DHT22;55961;52.156;20.942;2023-05-10T12:59:51;23.20;27.40
68924;DHT22;55961;52.156;20.942;2023-05-10T13:02:17;23.20;27.90
68924;DHT22;55961;52.156;20.942;2023-05-10T13:04:44;23.20;28.00
68924;DHT22;55961;52.156;20.942;2023-05-10T13:07:12;23.30;27.80
68924;DHT22;55961;52.156;20.942;2023-05-10T13:09:38;23.30;27.40
68924;DHT22;55961;52.156;20.942;2023-05-10T13:12:04;23.30;28.00
68924;DHT22;55961;52.156;20.942;2023-05-10T13:14:30;23.40;27.50
68924;DHT22;55961;52.156;20.942;2023-05-10T13:16:57;23.30;27.50
68924;DHT22;55961;52.156;20.942;2023-05-10T13:19:22;23.20;27.50
68924;DHT22;55961;52.156;20.942;2023-05-10T13:21:49;23.20;27.30
68924;DHT22;55961;52.156;20.942;2023-05-10T13:24:14;23.10;27.80
68924;DHT22;55961;52.156;20.942;2023-05-10T13:26:41;23.10;27.40
68924;DHT22;55961;52.156;20.942;2023-05-10T13:29:07;23.00;27.60
68924;DHT22;55961;52.156;20.942;2023-05-10T13:31:33;23.00;27.50
68924;DHT22;55961;52.156;20.942;2023-05-10T13:33:59;22.90;27.40
68924;DHT22;55961;52.156;20.942;2023-05-10T13:36:25;22.80;27.50
68924;DHT22;55961;52.156;20.942;2023-05-10T13:38:51;22.70;27.60
68924;DHT22;55961;52.156;20.942;2023-05-10T13:41:17;22.70;27.80
68924;DHT22;55961;52.156;20.942;2023-05-10T13:43:43;22.70;27.50
68924;DHT22;55961;52.156;20.942;2023-05-10T13:46:09;22.60;27.70
68924;DHT22;55961;52.156;20.942;2023-05-10T13:48:36;22.60;27.90
68924;DHT22;55961;52.156;20.942;2023-05-10T13:51:04;22.60;27.90
68924;DHT22;55961;52.156;20.942;2023-05-10T13:53:30;22.60;27.70
68924;DHT22;55961;52.156;20.942;2023-05-10T13:55:56;22.60;28.00
68924;DHT22;55961;52.156;20.942;2023-05-10T13:58:22;22.60;27.80
68924;DHT22;55961;52.156;20.942;2023-05-10T14:00:49;22.60;28.00
68924;DHT22;55961;52.156;20.942;2023-05-10T14:03:15;22.70;27.90
68924;DHT22;55961;52.156;20.942;2023-05-10T14:05:41;22.70;28.50
68924;DHT22;55961;52.156;20.942;2023-05-10T14:08:06;22.70;28.40
68924;DHT22;55961;52.156;20.942;2023-05-10T14:10:35;22.80;27.90
68924;DHT22;55961;52.156;20.942;2023-05-10T14:13:00;22.80;28.10
68924;DHT22;55961;52.156;20.942;2023-05-10T14:15:27;22.80;28.40
68924;DHT22;55961;52.156;20.942;2023-05-10T14:17:52;22.80;28.40
68924;DHT22;55961;52.156;20.942;2023-05-10T14:20:18;22.90;28.50
68924;DHT22;55961;52.156;20.942;2023-05-10T14:22:44;22.90;28.20
68924;DHT22;55961;52.156;20.942;2023-05-10T14:25:10;22.80;28.10
68924;DHT22;55961;52.156;20.942;2023-05-10T14:27:36;22.80;28.20
68924;DHT22;55961;52.156;20.942;2023-05-10T14:30:03;22.70;27.90
68924;DHT22;55961;52.156;20.942;2023-05-10T14:32:29;22.70;27.90
68924;DHT22;55961;52.156;20.942;2023-05-10T14:34:55;22.60;27.80
68924;DHT22;55961;52.156;20.942;2023-05-10T14:37:21;22.60;27.70
68924;DHT22;55961;52.156;20.942;2023-05-10T14:39:47;22.50;28.30
68924;DHT22;55961;52.156;20.942;2023-05-10T14:42:13;22.50;28.70
68924;DHT22;55961;52.156;20.942;2023-05-10T14:44:39;22.40;28.20
68924;DHT22;55961;52.156;20.942;2023-05-10T14:47:05;22.40;28.60
68924;DHT22;55961;52.156;20.942;2023-05-10T14:49:31;22.40;28.10
68924;DHT22;55961;52.156;20.942;2023-05-10T14:51:57;22.40;28.10
68924;DHT22;55961;52.156;20.942;2023-05-10T14:54:23;22.40;28.10
68924;DHT22;55961;52.156;20.942;2023-05-10T14:56:49;22.30;28.00
68924;DHT22;55961;52.156;20.942;2023-05-10T14:59:15;22.30;28.40
68924;DHT22;55961;52.156;20.942;2023-05-10T15:01:41;22.20;28.20
68924;DHT22;55961;52.156;20.942;2023-05-10T15:04:08;22.20;27.90
68924;DHT22;55961;52.156;20.942;2023-05-10T15:06:34;22.10;28.40
68924;DHT22;55961;52.156;20.942;2023-05-10T15:09:02;22.00;28.40
68924;DHT22;55961;52.156;20.942;2023-05-10T15:11:31;21.90;29.10
68924;DHT22;55961;52.156;20.942;2023-05-10T15:13:57;21.90;29.10
68924;DHT22;55961;52.156;20.942;2023-05-10T15:16:23;22.00;28.90
68924;DHT22;55961;52.156;20.942;2023-05-10T15:18:49;22.00;28.90
68924;DHT22;55961;52.156;20.942;2023-05-10T15:21:15;22.00;28.90
68924;DHT22;55961;52.156;20.942;2023-05-10T15:23:41;21.90;29.10
68924;DHT22;55961;52.156;20.942;2023-05-10T15:26:07;21.90;29.10
68924;DHT22;55961;52.156;20.942;2023-05-10T15:28:33;21.90;28.80
68924;DHT22;55961;52.156;20.942;2023-05-10T15:30:59;21.80;28.90
68924;DHT22;55961;52.156;20.942;2023-05-10T15:33:26;21.80;29.00
68924;DHT22;55961;52.156;20.942;2023-05-10T15:35:53;21.70;28.80
68924;DHT22;55961;52.156;20.942;2023-05-10T15:38:19;21.70;29.10
68924;DHT22;55961;52.156;20.942;2023-05-10T15:40:45;21.60;28.50
68924;DHT22;55961;52.156;20.942;2023-05-10T15:43:11;21.50;29.00
68924;DHT22;55961;52.156;20.942;2023-05-10T15:45:37;21.50;29.10
68924;DHT22;55961;52.156;20.942;2023-05-10T15:48:03;21.40;28.50
68924;DHT22;55961;52.156;20.942;2023-05-10T15:50:29;21.30;28.10
68924;DHT22;55961;52.156;20.942;2023-05-10T15:52:55;21.30;28.80
68924;DHT22;55961;52.156;20.942;2023-05-10T15:55:21;21.20;28.80